sensor_id;sensor_type;location;lat;lon;timestamp;pressure;altitude;pressure_sealevel;temperature
24639;BMP180;1641;51.306;12.384;2022-10-16T00:01:29;99851.00;;;18.90
24639;BMP180;1641;51.306;12.384;2022-10-16T00:03:56;99848.00;;;18.90
24639;BMP180;1641;51.306;12.384;2022-10-16T00:06:22;99848.00;;;18.80
24639;BMP180;1641;51.306;12.384;2022-10-16T00:08:49;99847.00;;;18.70
24639;BMP180;1641;51.306;12.384;2022-10-16T00:11:20;99842.00;;;18.80
24639;BMP180;1641;51.306;12.384;2022-10-16T00:13:47;99844.00;;;18.60
24639;BMP180;1641;51.306;12.384;2022-10-16T00:16:13;99847.00;;;18.40
24639;BMP180;1641;51.306;12.384;2022-10-16T00:18:39;99843.00;;;18.60
24639;BMP180;1641;51.306;12.384;2022-10-16T00:21:08;99850.00;;;18.50
24639;BMP180;1641;51.306;12.384;2022-10-16T00:23:34;99845.00;;;18.30
24639;BMP180;1641;51.306;12.384;2022-10-16T00:26:02;99857.00;;;18.30
24639;BMP180;1641;51.306;12.384;2022-10-16T00:28:28;99855.00;;;18.50
24639;BMP180;1641;51.306;12.384;2022-10-16T00:30:54;99843.00;;;18.50
24639;BMP180;1641;51.306;12.384;2022-10-16T00:33:19;99858.00;;;18.60
24639;BMP180;1641;51.306;12.384;2022-10-16T00:35:45;99862.00;;;18.60
24639;BMP180;1641;51.306;12.384;2022-10-16T00:38:10;99854.00;;;18.50
24639;BMP180;1641;51.306;12.384;2022-10-16T00:40:36;99860.00;;;18.30
24639;BMP180;1641;51.306;12.384;2022-10-16T00:43:01;99873.00;;;18.50
24639;BMP180;1641;51.306;12.384;2022-10-16T00:45:26;99872.00;;;18.70
24639;BMP180;1641;51.306;12.384;2022-10-16T00:47:54;99869.00;;;18.90
24639;BMP180;1641;51.306;12.384;2022-10-16T00:50:32;99869.00;;;18.90
24639;BMP180;1641;51.306;12.384;2022-10-16T00:52:58;99865.00;;;18.70
24639;BMP180;1641;51.306;12.384;2022-10-16T00:55:26;99878.00;;;18.80
24639;BMP180;1641;51.306;12.384;2022-10-16T00:57:51;99873.00;;;18.90
24639;BMP180;1641;51.306;12.384;2022-10-16T01:00:22;99870.00;;;18.90
24639;BMP180;1641;51.306;12.384;2022-10-16T01:02:57;99863.00;;;18.70
24639;BMP180;1641;51.306;12.384;2022-10-16T01:05:25;99861.00;;;18.60
24639;BMP180;1641;51.306;12.384;2022-10-16T01:07:56;99867.00;;;18.70
24639;BMP180;1641;51.306;12.384;2022-10-16T01:10:27;99864.00;;;18.80
24639;BMP180;1641;51.306;12.384;2022-10-16T01:15:54;99862.00;;;18.60
24639;BMP180;1641;51.306;12.384;2022-10-16T01:18:34;99870.00;;;18.90
24639;BMP180;1641;51.306;12.384;2022-10-16T01:21:03;99851.00;;;18.80
24639;BMP180;1641;51.306;12.384;2022-10-16T01:23:51;99865.00;;;18.80
24639;BMP180;1641;51.306;12.384;2022-10-16T01:26:31;99868.00;;;18.60
24639;BMP180;1641;51.306;12.384;2022-10-16T01:29:08;99867.00;;;18.90
24639;BMP180;1641;51.306;12.384;2022-10-16T01:31:36;99869.00;;;18.90
24639;BMP180;1641;51.306;12.384;2022-10-16T01:34:06;99868.00;;;19.00
24639;BMP180;1641;51.306;12.384;2022-10-16T01:36:38;99879.00;;;18.90
24639;BMP180;1641;51.306;12.384;2022-10-16T01:39:05;99884.00;;;18.90
24639;BMP180;1641;51.306;12.384;2022-10-16T01:41:38;99891.00;;;18.80
24639;BMP180;1641;51.306;12.384;2022-10-16T01:44:16;99891.00;;;18.60
24639;BMP180;1641;51.306;12.384;2022-10-16T01:46:43;99890.00;;;18.60
24639;BMP180;1641;51.306;12.384;2022-10-16T01:49:10;99887.00;;;18.40
24639;BMP180;1641;51.306;12.384;2022-10-16T01:51:36;99894.00;;;18.30
24639;BMP180;1641;51.306;12.384;2022-10-16T01:54:04;99896.00;;;18.30
24639;BMP180;1641;51.306;12.384;2022-10-16T01:56:31;99899.00;;;18.30
24639;BMP180;1641;51.306;12.384;2022-10-16T01:59:00;99893.00;;;18.30
24639;BMP180;1641;51.306;12.384;2022-10-16T02:01:29;99889.00;;;18.10
24639;BMP180;1641;51.306;12.384;2022-10-16T02:03:57;99893.00;;;18.10
24639;BMP180;1641;51.306;12.384;2022-10-16T02:06:23;99892.00;;;18.10
24639;BMP180;1641;51.306;12.384;2022-10-16T02:08:50;99880.00;;;18.10
24639;BMP180;1641;51.306;12.384;2022-10-16T02:11:15;99879.00;;;17.60
24639;BMP180;1641;51.306;12.384;2022-10-16T02:13:44;99875.00;;;17.80
24639;BMP180;1641;51.306;12.384;2022-10-16T02:16:11;99887.00;;;18.00
24639;BMP180;1641;51.306;12.384;2022-10-16T02:18:38;99869.00;;;18.00
24639;BMP180;1641;51.306;12.384;2022-10-16T02:23:45;99888.00;;;18.00
24639;BMP180;1641;51.306;12.384;2022-10-16T02:26:15;99894.00;;;18.20
24639;BMP180;1641;51.306;12.384;2022-10-16T02:28:45;99902.00;;;18.20
24639;BMP180;1641;51.306;12.384;2022-10-16T02:31:12;99905.00;;;18.10
24639;BMP180;1641;51.306;12.384;2022-10-16T02:33:42;99908.00;;;18.00
24639;BMP180;1641;51.306;12.384;2022-10-16T02:36:09;99915.00;;;18.10
24639;BMP180;1641;51.306;12.384;2022-10-16T02:38:35;99913.00;;;18.10
24639;BMP180;1641;51.306;12.384;2022-10-16T02:41:01;99905.00;;;17.70
24639;BMP180;1641;51.306;12.384;2022-10-16T02:43:27;99903.00;;;17.60
24639;BMP180;1641;51.306;12.384;2022-10-16T02:45:52;99914.00;;;17.80
24639;BMP180;1641;51.306;12.384;2022-10-16T02:48:17;99901.00;;;17.80
24639;BMP180;1641;51.306;12.384;2022-10-16T02:50:42;99909.00;;;17.40
24639;BMP180;1641;51.306;12.384;2022-10-16T02:53:08;99901.00;;;17.60
24639;BMP180;1641;51.306;12.384;2022-10-16T02:55:33;99902.00;;;17.50
24639;BMP180;1641;51.306;12.384;2022-10-16T02:57:58;99904.00;;;17.80
24639;BMP180;1641;51.306;12.384;2022-10-16T03:00:24;99894.00;;;17.70
24639;BMP180;1641;51.306;12.384;2022-10-16T03:02:49;99896.00;;;17.50
24639;BMP180;1641;51.306;12.384;2022-10-16T03:05:15;99894.00;;;17.50
24639;BMP180;1641;51.306;12.384;2022-10-16T03:07:40;99904.00;;;17.50
24639;BMP180;1641;51.306;12.384;2022-10-16T03:10:06;99908.00;;;17.60
24639;BMP180;1641;51.306;12.384;2022-10-16T03:12:32;99917.00;;;17.70
24639;BMP180;1641;51.306;12.384;2022-10-16T03:14:57;99889.00;;;17.50
24639;BMP180;1641;51.306;12.384;2022-10-16T03:17:23;99918.00;;;17.60
24639;BMP180;1641;51.306;12.384;2022-10-16T03:19:49;99920.00;;;17.40
24639;BMP180;1641;51.306;12.384;2022-10-16T03:22:14;99913.00;;;17.40
24639;BMP180;1641;51.306;12.384;2022-10-16T03:24:40;99910.00;;;17.40
24639;BMP180;1641;51.306;12.384;2022-10-16T03:27:05;99906.00;;;17.50
24639;BMP180;1641;51.306;12.384;2022-10-16T03:29:31;99918.00;;;17.70
24639;BMP180;1641;51.306;12.384;2022-10-16T03:31:57;99907.00;;;17.70
24639;BMP180;1641;51.306;12.384;2022-10-16T03:34:22;99940.00;;;18.00
24639;BMP180;1641;51.306;12.384;2022-10-16T03:36:47;99942.00;;;18.10
24639;BMP180;1641;51.306;12.384;2022-10-16T03:39:13;99926.00;;;17.90
24639;BMP180;1641;51.306;12.384;2022-10-16T03:41:38;99936.00;;;17.90
24639;BMP180;1641;51.306;12.384;2022-10-16T03:44:03;99937.00;;;17.90
24639;BMP180;1641;51.306;12.384;2022-10-16T03:46:28;99937.00;;;17.60
24639;BMP180;1641;51.306;12.384;2022-10-16T03:48:54;99930.00;;;17.40
24639;BMP180;1641;51.306;12.384;2022-10-16T03:51:19;99932.00;;;17.40
24639;BMP180;1641;51.306;12.384;2022-10-16T03:53:45;99914.00;;;17.50
24639;BMP180;1641;51.306;12.384;2022-10-16T03:56:10;99916.00;;;17.70
24639;BMP180;1641;51.306;12.384;2022-10-16T03:58:35;99914.00;;;17.60
24639;BMP180;1641;51.306;12.384;2022-10-16T04:01:01;99911.00;;;17.60
24639;BMP180;1641;51.306;12.384;2022-10-16T04:03:26;99919.00;;;17.70
24639;BMP180;1641;51.306;12.384;2022-10-16T04:05:51;99925.00;;;17.80
24639;BMP180;1641;51.306;12.384;2022-10-16T04:08:17;99923.00;;;17.80
24639;BMP180;1641;51.306;12.384;2022-10-16T04:10:43;99925.00;;;18.00
24639;BMP180;1641;51.306;12.384;2022-10-16T04:13:08;99909.00;;;17.80
24639;BMP180;1641;51.306;12.384;2022-10-16T04:15:34;99919.00;;;17.50
24639;BMP180;1641;51.306;12.384;2022-10-16T04:17:59;99911.00;;;17.50
24639;BMP180;1641;51.306;12.384;2022-10-16T04:20:24;99913.00;;;17.60
24639;BMP180;1641;51.306;12.384;2022-10-16T04:22:50;99914.00;;;17.70
24639;BMP180;1641;51.306;12.384;2022-10-16T04:25:15;99931.00;;;17.80
24639;BMP180;1641;51.306;12.384;2022-10-16T04:27:40;99917.00;;;17.90
24639;BMP180;1641;51.306;12.384;2022-10-16T04:30:06;99944.00;;;17.90
24639;BMP180;1641;51.306;12.384;2022-10-16T04:32:32;99955.00;;;17.90
24639;BMP180;1641;51.306;12.384;2022-10-16T04:34:57;99958.00;;;17.80
24639;BMP180;1641;51.306;12.384;2022-10-16T04:37:26;99955.00;;;17.70
24639;BMP180;1641;51.306;12.384;2022-10-16T04:39:52;99956.00;;;17.60
24639;BMP180;1641;51.306;12.384;2022-10-16T04:42:18;99957.00;;;17.60
24639;BMP180;1641;51.306;12.384;2022-10-16T04:44:43;99967.00;;;17.70
24639;BMP180;1641;51.306;12.384;2022-10-16T04:47:08;99961.00;;;17.50
24639;BMP180;1641;51.306;12.384;2022-10-16T04:49:34;99965.00;;;17.40
24639;BMP180;1641;51.306;12.384;2022-10-16T04:51:59;99964.00;;;17.60
24639;BMP180;1641;51.306;12.384;2022-10-16T04:54:24;99965.00;;;17.60
24639;BMP180;1641;51.306;12.384;2022-10-16T04:56:49;99973.00;;;17.80
24639;BMP180;1641;51.306;12.384;2022-10-16T04:59:17;99983.00;;;17.70
24639;BMP180;1641;51.306;12.384;2022-10-16T05:01:43;99985.00;;;17.80
24639;BMP180;1641;51.306;12.384;2022-10-16T05:04:09;99989.00;;;17.60
24639;BMP180;1641;51.306;12.384;2022-10-16T05:06:35;99978.00;;;17.60
24639;BMP180;1641;51.306;12.384;2022-10-16T05:09:00;99991.00;;;17.60
24639;BMP180;1641;51.306;12.384;2022-10-16T05:11:26;99999.00;;;17.50
24639;BMP180;1641;51.306;12.384;2022-10-16T05:13:51;100004.00;;;17.60
24639;BMP180;1641;51.306;12.384;2022-10-16T05:16:16;100000.00;;;17.60
24639;BMP180;1641;51.306;12.384;2022-10-16T05:18:41;99992.00;;;17.70
24639;BMP180;1641;51.306;12.384;2022-10-16T05:21:07;99986.00;;;17.30
24639;BMP180;1641;51.306;12.384;2022-10-16T05:23:32;99983.00;;;17.10
24639;BMP180;1641;51.306;12.384;2022-10-16T05:25:58;99994.00;;;16.90
24639;BMP180;1641;51.306;12.384;2022-10-16T05:28:27;99993.00;;;17.10
24639;BMP180;1641;51.306;12.384;2022-10-16T05:30:53;100007.00;;;17.40
24639;BMP180;1641;51.306;12.384;2022-10-16T05:33:23;100000.00;;;17.50
24639;BMP180;1641;51.306;12.384;2022-10-16T05:35:49;100010.00;;;17.50
24639;BMP180;1641;51.306;12.384;2022-10-16T05:38:15;100000.00;;;17.40
24639;BMP180;1641;51.306;12.384;2022-10-16T05:40:40;100011.00;;;17.30
24639;BMP180;1641;51.306;12.384;2022-10-16T05:43:06;100019.00;;;17.40
24639;BMP180;1641;51.306;12.384;2022-10-16T05:45:31;100008.00;;;17.40
24639;BMP180;1641;51.306;12.384;2022-10-16T05:47:56;100017.00;;;17.40
24639;BMP180;1641;51.306;12.384;2022-10-16T05:50:21;100010.00;;;17.60
24639;BMP180;1641;51.306;12.384;2022-10-16T05:52:47;100008.00;;;17.40
24639;BMP180;1641;51.306;12.384;2022-10-16T05:55:12;100015.00;;;17.60
24639;BMP180;1641;51.306;12.384;2022-10-16T05:57:37;100016.00;;;17.80
24639;BMP180;1641;51.306;12.384;2022-10-16T06:00:04;100024.00;;;17.80
24639;BMP180;1641;51.306;12.384;2022-10-16T06:02:29;100034.00;;;17.90
24639;BMP180;1641;51.306;12.384;2022-10-16T06:04:54;100027.00;;;18.00
24639;BMP180;1641;51.306;12.384;2022-10-16T06:07:20;100005.00;;;18.00
24639;BMP180;1641;51.306;12.384;2022-10-16T06:09:49;100031.00;;;18.00
24639;BMP180;1641;51.306;12.384;2022-10-16T06:12:15;100024.00;;;18.30
24639;BMP180;1641;51.306;12.384;2022-10-16T06:14:53;100039.00;;;18.50
24639;BMP180;1641;51.306;12.384;2022-10-16T06:17:18;100033.00;;;18.60
24639;BMP180;1641;51.306;12.384;2022-10-16T06:19:43;100039.00;;;18.40
24639;BMP180;1641;51.306;12.384;2022-10-16T06:22:09;100041.00;;;18.40
24639;BMP180;1641;51.306;12.384;2022-10-16T06:24:34;100049.00;;;18.50
24639;BMP180;1641;51.306;12.384;2022-10-16T06:26:59;100042.00;;;18.50
24639;BMP180;1641;51.306;12.384;2022-10-16T06:29:25;100039.00;;;18.40
24639;BMP180;1641;51.306;12.384;2022-10-16T06:31:50;100043.00;;;18.40
24639;BMP180;1641;51.306;12.384;2022-10-16T06:34:15;100057.00;;;18.50
24639;BMP180;1641;51.306;12.384;2022-10-16T06:36:41;100058.00;;;18.60
24639;BMP180;1641;51.306;12.384;2022-10-16T06:39:09;100062.00;;;18.80
24639;BMP180;1641;51.306;12.384;2022-10-16T06:41:34;100061.00;;;18.90
24639;BMP180;1641;51.306;12.384;2022-10-16T06:44:06;100047.00;;;19.00
24639;BMP180;1641;51.306;12.384;2022-10-16T06:46:36;100054.00;;;18.90
24639;BMP180;1641;51.306;12.384;2022-10-16T06:49:01;100065.00;;;18.90
24639;BMP180;1641;51.306;12.384;2022-10-16T06:51:27;100068.00;;;18.60
24639;BMP180;1641;51.306;12.384;2022-10-16T06:53:54;100074.00;;;18.80
24639;BMP180;1641;51.306;12.384;2022-10-16T06:56:23;100086.00;;;18.90
24639;BMP180;1641;51.306;12.384;2022-10-16T06:58:49;100076.00;;;19.00
24639;BMP180;1641;51.306;12.384;2022-10-16T07:01:17;100087.00;;;19.10
24639;BMP180;1641;51.306;12.384;2022-10-16T07:03:44;100086.00;;;18.80
24639;BMP180;1641;51.306;12.384;2022-10-16T07:06:16;100081.00;;;18.70
24639;BMP180;1641;51.306;12.384;2022-10-16T07:08:43;100075.00;;;18.80
24639;BMP180;1641;51.306;12.384;2022-10-16T07:11:11;100078.00;;;18.80
24639;BMP180;1641;51.306;12.384;2022-10-16T07:13:38;100079.00;;;18.70
24639;BMP180;1641;51.306;12.384;2022-10-16T07:16:09;100065.00;;;18.50
24639;BMP180;1641;51.306;12.384;2022-10-16T07:18:39;100036.00;;;17.80
24639;BMP180;1641;51.306;12.384;2022-10-16T07:21:11;100020.00;;;17.90
24639;BMP180;1641;51.306;12.384;2022-10-16T07:23:37;100037.00;;;18.40
24639;BMP180;1641;51.306;12.384;2022-10-16T07:26:04;100068.00;;;19.00
24639;BMP180;1641;51.306;12.384;2022-10-16T07:28:29;100049.00;;;19.20
24639;BMP180;1641;51.306;12.384;2022-10-16T07:31:07;100082.00;;;19.70
24639;BMP180;1641;51.306;12.384;2022-10-16T07:33:41;100101.00;;;19.90
24639;BMP180;1641;51.306;12.384;2022-10-16T07:36:12;100104.00;;;19.70
24639;BMP180;1641;51.306;12.384;2022-10-16T07:38:41;100110.00;;;20.10
24639;BMP180;1641;51.306;12.384;2022-10-16T07:41:12;100099.00;;;20.20
24639;BMP180;1641;51.306;12.384;2022-10-16T07:43:38;100097.00;;;20.50
24639;BMP180;1641;51.306;12.384;2022-10-16T07:46:04;100111.00;;;20.50
24639;BMP180;1641;51.306;12.384;2022-10-16T07:48:31;100099.00;;;20.80
24639;BMP180;1641;51.306;12.384;2022-10-16T07:50:58;100119.00;;;21.30
24639;BMP180;1641;51.306;12.384;2022-10-16T07:53:24;100127.00;;;21.70
24639;BMP180;1641;51.306;12.384;2022-10-16T07:55:50;100119.00;;;21.60
24639;BMP180;1641;51.306;12.384;2022-10-16T07:58:21;100127.00;;;21.90
24639;BMP180;1641;51.306;12.384;2022-10-16T08:00:46;100136.00;;;21.80
24639;BMP180;1641;51.306;12.384;2022-10-16T08:03:17;100131.00;;;23.10
24639;BMP180;1641;51.306;12.384;2022-10-16T08:05:49;100137.00;;;25.60
24639;BMP180;1641;51.306;12.384;2022-10-16T08:08:19;100124.00;;;27.20
24639;BMP180;1641;51.306;12.384;2022-10-16T08:10:45;100138.00;;;28.10
24639;BMP180;1641;51.306;12.384;2022-10-16T08:13:13;100143.00;;;29.70
24639;BMP180;1641;51.306;12.384;2022-10-16T08:15:41;100157.00;;;28.20
24639;BMP180;1641;51.306;12.384;2022-10-16T08:18:06;100152.00;;;28.00
24639;BMP180;1641;51.306;12.384;2022-10-16T08:20:32;100163.00;;;27.40
24639;BMP180;1641;51.306;12.384;2022-10-16T08:22:59;100169.00;;;25.70
24639;BMP180;1641;51.306;12.384;2022-10-16T08:25:28;100185.00;;;24.50
24639;BMP180;1641;51.306;12.384;2022-10-16T08:27:54;100190.00;;;23.30
24639;BMP180;1641;51.306;12.384;2022-10-16T08:30:20;100184.00;;;23.20
24639;BMP180;1641;51.306;12.384;2022-10-16T08:32:46;100175.00;;;22.70
24639;BMP180;1641;51.306;12.384;2022-10-16T08:35:12;100169.00;;;22.90
24639;BMP180;1641;51.306;12.384;2022-10-16T08:37:38;100172.00;;;22.50
24639;BMP180;1641;51.306;12.384;2022-10-16T08:40:16;100174.00;;;22.80
24639;BMP180;1641;51.306;12.384;2022-10-16T08:48:06;100195.00;;;23.10
24639;BMP180;1641;51.306;12.384;2022-10-16T08:50:37;100173.00;;;23.90
24639;BMP180;1641;51.306;12.384;2022-10-16T08:53:43;100184.00;;;24.20
24639;BMP180;1641;51.306;12.384;2022-10-16T08:56:09;100196.00;;;24.80
24639;BMP180;1641;51.306;12.384;2022-10-16T08:58:35;100212.00;;;24.70
24639;BMP180;1641;51.306;12.384;2022-10-16T09:01:03;100216.00;;;24.00
24639;BMP180;1641;51.306;12.384;2022-10-16T09:09:03;100237.00;;;23.30
24639;BMP180;1641;51.306;12.384;2022-10-16T09:11:48;100233.00;;;23.70
24639;BMP180;1641;51.306;12.384;2022-10-16T09:22:35;100234.00;;;24.70
24639;BMP180;1641;51.306;12.384;2022-10-16T09:25:01;100228.00;;;23.90
24639;BMP180;1641;51.306;12.384;2022-10-16T09:27:37;100232.00;;;23.50
24639;BMP180;1641;51.306;12.384;2022-10-16T09:30:14;100227.00;;;23.70
24639;BMP180;1641;51.306;12.384;2022-10-16T09:32:41;100229.00;;;23.80
24639;BMP180;1641;51.306;12.384;2022-10-16T09:35:14;100234.00;;;24.20
24639;BMP180;1641;51.306;12.384;2022-10-16T09:37:45;100228.00;;;24.10
24639;BMP180;1641;51.306;12.384;2022-10-16T09:40:32;100228.00;;;24.20
24639;BMP180;1641;51.306;12.384;2022-10-16T09:43:19;100237.00;;;24.20
24639;BMP180;1641;51.306;12.384;2022-10-16T09:46:01;100244.00;;;24.40
24639;BMP180;1641;51.306;12.384;2022-10-16T09:48:43;100257.00;;;24.40
24639;BMP180;1641;51.306;12.384;2022-10-16T09:51:33;100248.00;;;24.20
24639;BMP180;1641;51.306;12.384;2022-10-16T09:54:11;100246.00;;;23.20
24639;BMP180;1641;51.306;12.384;2022-10-16T09:56:47;100249.00;;;23.30
24639;BMP180;1641;51.306;12.384;2022-10-16T09:59:21;100260.00;;;22.60
24639;BMP180;1641;51.306;12.384;2022-10-16T10:01:53;100262.00;;;22.90
24639;BMP180;1641;51.306;12.384;2022-10-16T10:04:23;100255.00;;;23.10
24639;BMP180;1641;51.306;12.384;2022-10-16T10:06:52;100252.00;;;23.70
24639;BMP180;1641;51.306;12.384;2022-10-16T10:12:01;100270.00;;;23.70
24639;BMP180;1641;51.306;12.384;2022-10-16T10:14:45;100265.00;;;23.30
24639;BMP180;1641;51.306;12.384;2022-10-16T10:17:26;100261.00;;;23.50
24639;BMP180;1641;51.306;12.384;2022-10-16T10:19:57;100269.00;;;23.80
24639;BMP180;1641;51.306;12.384;2022-10-16T10:22:24;100280.00;;;23.90
24639;BMP180;1641;51.306;12.384;2022-10-16T10:24:58;100277.00;;;23.30
24639;BMP180;1641;51.306;12.384;2022-10-16T10:30:19;100264.00;;;23.50
24639;BMP180;1641;51.306;12.384;2022-10-16T10:35:46;100276.00;;;24.00
24639;BMP180;1641;51.306;12.384;2022-10-16T10:43:43;100273.00;;;23.30
24639;BMP180;1641;51.306;12.384;2022-10-16T10:46:36;100276.00;;;23.80
24639;BMP180;1641;51.306;12.384;2022-10-16T10:57:22;100276.00;;;22.90
24639;BMP180;1641;51.306;12.384;2022-10-16T11:02:40;100280.00;;;22.60
24639;BMP180;1641;51.306;12.384;2022-10-16T11:05:26;100289.00;;;23.10
24639;BMP180;1641;51.306;12.384;2022-10-16T11:08:17;100277.00;;;23.00
24639;BMP180;1641;51.306;12.384;2022-10-16T11:10:52;100276.00;;;23.20
24639;BMP180;1641;51.306;12.384;2022-10-16T11:13:34;100276.00;;;22.80
24639;BMP180;1641;51.306;12.384;2022-10-16T11:16:22;100272.00;;;22.80
24639;BMP180;1641;51.306;12.384;2022-10-16T11:18:55;100286.00;;;22.30
24639;BMP180;1641;51.306;12.384;2022-10-16T11:21:26;100273.00;;;22.60
24639;BMP180;1641;51.306;12.384;2022-10-16T11:23:59;100265.00;;;22.80
24639;BMP180;1641;51.306;12.384;2022-10-16T11:26:28;100280.00;;;23.00
24639;BMP180;1641;51.306;12.384;2022-10-16T11:28:56;100283.00;;;23.50
24639;BMP180;1641;51.306;12.384;2022-10-16T11:31:29;100296.00;;;23.40
24639;BMP180;1641;51.306;12.384;2022-10-16T11:34:22;100283.00;;;23.10
24639;BMP180;1641;51.306;12.384;2022-10-16T11:37:04;100288.00;;;23.40
24639;BMP180;1641;51.306;12.384;2022-10-16T11:39:33;100288.00;;;23.70
24639;BMP180;1641;51.306;12.384;2022-10-16T11:42:13;100289.00;;;23.80
24639;BMP180;1641;51.306;12.384;2022-10-16T11:47:34;100291.00;;;24.10
24639;BMP180;1641;51.306;12.384;2022-10-16T11:50:13;100297.00;;;23.40
24639;BMP180;1641;51.306;12.384;2022-10-16T11:55:39;100295.00;;;23.60
24639;BMP180;1641;51.306;12.384;2022-10-16T12:03:58;100299.00;;;23.90
24639;BMP180;1641;51.306;12.384;2022-10-16T12:06:48;100304.00;;;23.40
24639;BMP180;1641;51.306;12.384;2022-10-16T12:09:33;100302.00;;;23.70
24639;BMP180;1641;51.306;12.384;2022-10-16T12:11:59;100304.00;;;23.40
24639;BMP180;1641;51.306;12.384;2022-10-16T12:16:58;100299.00;;;23.20
24639;BMP180;1641;51.306;12.384;2022-10-16T12:19:26;100314.00;;;23.30
24639;BMP180;1641;51.306;12.384;2022-10-16T12:21:55;100315.00;;;23.80
24639;BMP180;1641;51.306;12.384;2022-10-16T12:24:31;100316.00;;;23.70
24639;BMP180;1641;51.306;12.384;2022-10-16T12:27:01;100317.00;;;23.80
24639;BMP180;1641;51.306;12.384;2022-10-16T12:29:56;100326.00;;;23.80
24639;BMP180;1641;51.306;12.384;2022-10-16T12:32:32;100321.00;;;22.80
24639;BMP180;1641;51.306;12.384;2022-10-16T12:34:59;100315.00;;;22.30
24639;BMP180;1641;51.306;12.384;2022-10-16T12:37:31;100334.00;;;22.30
24639;BMP180;1641;51.306;12.384;2022-10-16T12:40:24;100326.00;;;22.20
24639;BMP180;1641;51.306;12.384;2022-10-16T12:42:50;100331.00;;;22.20
24639;BMP180;1641;51.306;12.384;2022-10-16T12:45:28;100337.00;;;22.20
24639;BMP180;1641;51.306;12.384;2022-10-16T12:47:55;100321.00;;;22.60
24639;BMP180;1641;51.306;12.384;2022-10-16T12:50:38;100335.00;;;23.10
24639;BMP180;1641;51.306;12.384;2022-10-16T12:53:24;100340.00;;;22.90
24639;BMP180;1641;51.306;12.384;2022-10-16T12:58:37;100338.00;;;21.90
24639;BMP180;1641;51.306;12.384;2022-10-16T13:01:09;100345.00;;;21.70
24639;BMP180;1641;51.306;12.384;2022-10-16T13:03:48;100339.00;;;21.90
24639;BMP180;1641;51.306;12.384;2022-10-16T13:06:33;100346.00;;;22.20
24639;BMP180;1641;51.306;12.384;2022-10-16T13:12:10;100346.00;;;22.30
24639;BMP180;1641;51.306;12.384;2022-10-16T13:17:37;100345.00;;;22.90
24639;BMP180;1641;51.306;12.384;2022-10-16T13:23:13;100341.00;;;22.60
24639;BMP180;1641;51.306;12.384;2022-10-16T13:28:22;100346.00;;;22.50
24639;BMP180;1641;51.306;12.384;2022-10-16T13:30:53;100348.00;;;22.90
24639;BMP180;1641;51.306;12.384;2022-10-16T13:33:33;100346.00;;;22.70
24639;BMP180;1641;51.306;12.384;2022-10-16T13:35:59;100348.00;;;22.90
24639;BMP180;1641;51.306;12.384;2022-10-16T13:38:27;100349.00;;;22.80
24639;BMP180;1641;51.306;12.384;2022-10-16T13:40:55;100353.00;;;22.90
24639;BMP180;1641;51.306;12.384;2022-10-16T13:43:28;100341.00;;;22.90
24639;BMP180;1641;51.306;12.384;2022-10-16T13:45:56;100349.00;;;22.80
24639;BMP180;1641;51.306;12.384;2022-10-16T13:48:21;100357.00;;;22.10
24639;BMP180;1641;51.306;12.384;2022-10-16T13:50:58;100326.00;;;21.80
24639;BMP180;1641;51.306;12.384;2022-10-16T13:53:23;100372.00;;;21.50
24639;BMP180;1641;51.306;12.384;2022-10-16T13:55:48;100364.00;;;22.10
24639;BMP180;1641;51.306;12.384;2022-10-16T13:58:14;100366.00;;;21.90
24639;BMP180;1641;51.306;12.384;2022-10-16T14:00:41;100371.00;;;22.00
24639;BMP180;1641;51.306;12.384;2022-10-16T14:03:17;100371.00;;;22.20
24639;BMP180;1641;51.306;12.384;2022-10-16T14:05:48;100377.00;;;22.30
24639;BMP180;1641;51.306;12.384;2022-10-16T14:08:14;100367.00;;;21.60
24639;BMP180;1641;51.306;12.384;2022-10-16T14:10:40;100378.00;;;21.50
24639;BMP180;1641;51.306;12.384;2022-10-16T14:13:06;100393.00;;;21.50
24639;BMP180;1641;51.306;12.384;2022-10-16T14:15:34;100370.00;;;21.40
24639;BMP180;1641;51.306;12.384;2022-10-16T14:18:00;100389.00;;;21.90
24639;BMP180;1641;51.306;12.384;2022-10-16T14:20:29;100388.00;;;22.00
24639;BMP180;1641;51.306;12.384;2022-10-16T14:23:20;100394.00;;;21.60
24639;BMP180;1641;51.306;12.384;2022-10-16T14:25:46;100394.00;;;21.80
24639;BMP180;1641;51.306;12.384;2022-10-16T14:28:22;100392.00;;;22.50
24639;BMP180;1641;51.306;12.384;2022-10-16T14:30:56;100399.00;;;22.60
24639;BMP180;1641;51.306;12.384;2022-10-16T14:33:33;100393.00;;;22.80
24639;BMP180;1641;51.306;12.384;2022-10-16T14:36:05;100390.00;;;22.70
24639;BMP180;1641;51.306;12.384;2022-10-16T14:38:36;100381.00;;;22.60
24639;BMP180;1641;51.306;12.384;2022-10-16T14:41:03;100396.00;;;22.60
24639;BMP180;1641;51.306;12.384;2022-10-16T14:45:57;100398.00;;;22.50
24639;BMP180;1641;51.306;12.384;2022-10-16T14:48:23;100402.00;;;22.50
24639;BMP180;1641;51.306;12.384;2022-10-16T14:50:49;100400.00;;;22.70
24639;BMP180;1641;51.306;12.384;2022-10-16T14:53:15;100399.00;;;22.70
24639;BMP180;1641;51.306;12.384;2022-10-16T14:55:41;100393.00;;;22.70
24639;BMP180;1641;51.306;12.384;2022-10-16T14:58:18;100400.00;;;22.70
24639;BMP180;1641;51.306;12.384;2022-10-16T15:00:44;100412.00;;;22.50
24639;BMP180;1641;51.306;12.384;2022-10-16T15:03:10;100413.00;;;22.70
24639;BMP180;1641;51.306;12.384;2022-10-16T15:05:35;100406.00;;;22.90
24639;BMP180;1641;51.306;12.384;2022-10-16T15:08:01;100411.00;;;23.00
24639;BMP180;1641;51.306;12.384;2022-10-16T15:10:27;100410.00;;;22.90
24639;BMP180;1641;51.306;12.384;2022-10-16T15:12:54;100403.00;;;22.90
24639;BMP180;1641;51.306;12.384;2022-10-16T15:17:47;100415.00;;;22.80
24639;BMP180;1641;51.306;12.384;2022-10-16T15:20:13;100417.00;;;22.40
24639;BMP180;1641;51.306;12.384;2022-10-16T15:22:38;100413.00;;;22.00
24639;BMP180;1641;51.306;12.384;2022-10-16T15:27:54;100423.00;;;22.00
24639;BMP180;1641;51.306;12.384;2022-10-16T15:30:20;100422.00;;;22.10
24639;BMP180;1641;51.306;12.384;2022-10-16T15:32:46;100421.00;;;22.00
24639;BMP180;1641;51.306;12.384;2022-10-16T15:35:11;100446.00;;;21.90
24639;BMP180;1641;51.306;12.384;2022-10-16T15:37:36;100447.00;;;22.00
24639;BMP180;1641;51.306;12.384;2022-10-16T15:40:02;100443.00;;;22.00